createdAt,value
2023-02-14T00:00:58.077Z,9.358597
2023-02-14T00:01:57.704Z,9.358635
2023-02-14T00:02:57.787Z,9.358644
2023-02-14T00:03:57.682Z,9.358691
2023-02-14T00:04:57.680Z,9.358636
2023-02-14T00:05:57.668Z,9.358480
2023-02-14T00:06:57.680Z,9.358537
2023-02-14T00:07:57.625Z,9.358560
2023-02-14T00:08:57.652Z,9.358562
2023-02-14T00:09:57.625Z,9.358540
2023-02-14T00:10:57.955Z,9.358540
2023-02-14T00:11:57.611Z,9.358540
2023-02-14T00:12:57.605Z,9.358587
2023-02-14T00:13:57.582Z,9.358560
2023-02-14T00:14:57.570Z,9.358603
2023-02-14T00:15:57.616Z,9.358633
2023-02-14T00:16:57.541Z,9.358573
2023-02-14T00:17:57.535Z,9.358530
2023-02-14T00:18:57.544Z,9.358506
2023-02-14T00:19:57.531Z,9.358476
2023-02-14T00:20:57.799Z,9.358492
2023-02-14T00:21:57.483Z,9.358446
2023-02-14T00:22:57.496Z,9.358523
2023-02-14T00:23:57.475Z,9.358536
2023-02-14T00:24:57.480Z,9.358574
2023-02-14T00:25:57.459Z,9.358521
2023-02-14T00:26:57.441Z,9.358534
2023-02-14T00:27:57.431Z,9.358570
2023-02-14T00:28:57.450Z,9.358593
2023-02-14T00:29:57.470Z,9.358539
2023-02-14T00:30:57.934Z,9.358529
2023-02-14T00:31:57.469Z,9.358510
2023-02-14T00:32:57.370Z,9.358626
2023-02-14T00:33:57.369Z,9.358595
2023-02-14T00:34:57.371Z,9.358587
2023-02-14T00:35:57.367Z,9.358589
2023-02-14T00:36:57.333Z,9.358486
2023-02-14T00:37:57.324Z,9.358467
2023-02-14T00:38:57.347Z,9.358516
2023-02-14T00:39:57.297Z,9.358624
2023-02-14T00:40:57.667Z,9.358648
2023-02-14T00:41:57.309Z,9.358677
2023-02-14T00:42:57.259Z,9.358678
2023-02-14T00:43:57.262Z,9.358721
2023-02-14T00:44:57.283Z,9.358558
2023-02-14T00:45:57.452Z,9.358503
2023-02-14T00:46:57.228Z,9.358542
2023-02-14T00:47:57.264Z,9.358547
2023-02-14T00:48:57.220Z,9.358462
2023-02-14T00:49:57.234Z,9.358511
2023-02-14T00:50:57.382Z,9.358558
2023-02-14T00:51:57.190Z,9.358570
2023-02-14T00:52:57.169Z,9.358621
2023-02-14T00:53:57.217Z,9.358644
2023-02-14T00:54:57.168Z,9.358610
2023-02-14T00:55:57.153Z,9.358565
2023-02-14T00:56:57.206Z,9.358533
2023-02-14T00:57:57.126Z,9.358471
2023-02-14T00:58:57.095Z,9.358492
2023-02-14T00:59:57.103Z,9.358475
2023-02-14T01:00:57.607Z,9.358484
2023-02-14T01:01:57.086Z,9.358521
2023-02-14T01:02:57.105Z,9.358529
2023-02-14T01:03:57.058Z,9.358506
2023-02-14T01:05:15.981Z,9.358520
2023-02-14T01:05:57.058Z,9.358490
2023-02-14T01:06:57.028Z,9.358475
2023-02-14T01:07:57.020Z,9.358426
2023-02-14T01:08:57.018Z,9.358477
2023-02-14T01:09:57.010Z,9.358543
2023-02-14T01:10:57.389Z,9.358602
2023-02-14T01:11:56.997Z,9.358555
2023-02-14T01:12:56.962Z,9.358650
2023-02-14T01:13:56.960Z,9.358664
2023-02-14T01:14:56.949Z,9.358575
2023-02-14T01:15:56.941Z,9.358626
2023-02-14T01:16:56.926Z,9.358623
2023-02-14T01:17:56.927Z,9.358624
2023-02-14T01:18:56.906Z,9.358572
2023-02-14T01:19:56.885Z,9.358593
2023-02-14T01:20:56.966Z,9.358666
2023-02-14T01:21:56.880Z,9.358620
2023-02-14T01:22:56.857Z,9.358745
2023-02-14T01:23:56.851Z,9.358666
2023-02-14T01:24:56.852Z,9.358550
2023-02-14T01:25:56.831Z,9.358532
2023-02-14T01:26:56.828Z,9.358507
2023-02-14T01:27:56.814Z,9.358539
2023-02-14T01:28:56.800Z,9.358586
2023-02-14T01:29:56.876Z,9.358620
2023-02-14T01:30:56.881Z,9.358644
2023-02-14T01:31:56.795Z,9.358687
2023-02-14T01:32:56.751Z,9.358656
2023-02-14T01:33:56.750Z,9.358636
2023-02-14T01:34:56.753Z,9.358628
2023-02-14T01:35:56.735Z,9.358627
2023-02-14T01:36:56.710Z,9.358605
2023-02-14T01:37:56.725Z,9.358580
2023-02-14T01:38:56.719Z,9.358609
2023-02-14T01:39:56.676Z,9.358673
2023-02-14T01:40:56.951Z,9.358576
2023-02-14T01:41:56.679Z,9.358590
2023-02-14T01:42:56.663Z,9.358658
2023-02-14T01:43:56.680Z,9.358606
2023-02-14T01:44:56.639Z,9.358458
2023-02-14T01:45:56.688Z,9.358500
2023-02-14T01:46:56.621Z,9.358539
2023-02-14T01:47:56.613Z,9.358623
2023-02-14T01:48:56.617Z,9.358526
2023-02-14T01:49:56.591Z,9.358446
2023-02-14T01:50:56.605Z,9.358564
2023-02-14T01:51:56.597Z,9.358628
2023-02-14T01:52:56.567Z,9.358665
2023-02-14T01:53:56.572Z,9.358617
2023-02-14T01:54:56.549Z,9.358589
2023-02-14T01:55:56.526Z,9.358614
2023-02-14T01:56:56.510Z,9.358634
2023-02-14T01:57:56.509Z,9.358619
2023-02-14T01:58:56.519Z,9.358564
2023-02-14T01:59:56.477Z,9.358524
2023-02-14T02:00:56.589Z,9.358528
2023-02-14T02:01:56.553Z,9.358508
2023-02-14T02:02:56.451Z,9.358508
2023-02-14T02:03:56.441Z,9.358474
2023-02-14T02:04:56.470Z,9.358500
2023-02-14T02:05:56.415Z,9.358527
2023-02-14T02:06:56.414Z,9.358555
2023-02-14T02:07:56.407Z,9.358573
2023-02-14T02:08:56.405Z,9.358549
2023-02-14T02:09:56.395Z,9.358583
2023-02-14T02:10:56.419Z,9.358519
2023-02-14T02:11:56.372Z,9.358558
2023-02-14T02:12:56.361Z,9.358538
2023-02-14T02:13:56.346Z,9.358420
2023-02-14T02:14:56.325Z,9.358459
2023-02-14T02:15:56.317Z,9.358477
2023-02-14T02:16:56.402Z,9.358534
2023-02-14T02:17:56.295Z,9.358579
2023-02-14T02:18:56.283Z,9.358484
2023-02-14T02:19:56.273Z,9.358477
2023-02-14T02:20:56.288Z,9.358392
2023-02-14T02:21:56.268Z,9.358464
2023-02-14T02:22:56.265Z,9.358515
2023-02-14T02:23:56.250Z,9.358593
2023-02-14T02:24:56.220Z,9.358638
2023-02-14T02:25:57.225Z,9.358598
2023-02-14T02:26:56.198Z,9.358618
2023-02-14T02:27:56.187Z,9.358569
2023-02-14T02:28:56.203Z,9.358590
2023-02-14T02:29:56.210Z,9.358601
2023-02-14T02:30:56.262Z,9.358582
2023-02-14T02:31:56.354Z,9.358601
2023-02-14T02:32:56.139Z,9.358543
2023-02-14T02:33:56.134Z,9.358545
2023-02-14T02:34:56.151Z,9.358597
2023-02-14T02:35:56.123Z,9.358648
2023-02-14T02:36:56.108Z,9.358621
2023-02-14T02:37:56.115Z,9.358636
2023-02-14T02:38:56.083Z,9.358541
2023-02-14T02:39:56.086Z,9.358524
2023-02-14T02:40:56.082Z,9.358510
2023-02-14T02:41:56.044Z,9.358531
2023-02-14T02:42:56.038Z,9.358568
2023-02-14T02:43:56.051Z,9.358514
2023-02-14T02:44:56.041Z,9.358545
2023-02-14T02:45:56.021Z,9.358560
2023-02-14T02:46:55.995Z,9.358551
2023-02-14T02:47:55.981Z,9.358525
2023-02-14T02:48:55.970Z,9.358545
2023-02-14T02:49:55.983Z,9.358633
2023-02-14T02:50:55.947Z,9.358598
2023-02-14T02:51:55.946Z,9.358658
2023-02-14T02:52:55.935Z,9.358590
2023-02-14T02:53:55.922Z,9.358537
2023-02-14T02:54:55.931Z,9.358544
2023-02-14T02:55:55.901Z,9.358509
2023-02-14T02:56:55.916Z,9.358486
2023-02-14T02:57:55.895Z,9.358504
2023-02-14T02:58:55.886Z,9.358496
2023-02-14T02:59:55.855Z,9.358504
2023-02-14T03:00:55.861Z,9.358476
2023-02-14T03:01:55.834Z,9.358522
2023-02-14T03:02:55.830Z,9.358541
2023-02-14T03:03:55.822Z,9.358503
2023-02-14T03:04:55.918Z,9.358516
2023-02-14T03:05:55.790Z,9.358508
2023-02-14T03:06:55.789Z,9.358496
2023-02-14T03:07:55.782Z,9.358516
2023-02-14T03:08:55.765Z,9.358463
2023-02-14T03:09:55.781Z,9.358480
2023-02-14T03:10:55.740Z,9.358451
2023-02-14T03:11:55.724Z,9.358461
2023-02-14T03:12:55.738Z,9.358480
2023-02-14T03:13:55.714Z,9.358470
2023-02-14T03:14:55.705Z,9.358514
2023-02-14T03:15:55.734Z,9.358536
2023-02-14T03:16:55.690Z,9.358480
2023-02-14T03:17:55.682Z,9.358454
2023-02-14T03:18:55.672Z,9.358463
2023-02-14T03:19:55.642Z,9.358483
2023-02-14T03:20:55.637Z,9.358521
2023-02-14T03:21:55.651Z,9.358529
2023-02-14T03:22:55.632Z,9.358489
2023-02-14T03:23:55.622Z,9.358520
2023-02-14T03:24:55.600Z,9.358521
2023-02-14T03:25:55.591Z,9.358536
2023-02-14T03:26:55.580Z,9.358513
2023-02-14T03:27:55.570Z,9.358505
2023-02-14T03:28:55.567Z,9.358513
2023-02-14T03:29:55.586Z,9.358593
2023-02-14T03:30:56.734Z,9.358599
2023-02-14T03:31:55.665Z,9.358558
2023-02-14T03:32:55.515Z,9.358538
2023-02-14T03:33:55.539Z,9.358526
2023-02-14T03:34:55.487Z,9.358521
2023-02-14T03:35:55.474Z,9.358529
2023-02-14T03:36:55.476Z,9.358562
2023-02-14T03:37:55.456Z,9.358546
2023-02-14T03:38:55.475Z,9.358601
2023-02-14T03:39:55.473Z,9.358566
2023-02-14T03:40:55.443Z,9.358526
2023-02-14T03:41:55.420Z,9.358518
2023-02-14T03:42:55.400Z,9.358516
2023-02-14T03:43:55.402Z,9.358545
2023-02-14T03:44:55.445Z,9.358513
2023-02-14T03:45:55.408Z,9.358479
2023-02-14T03:46:55.347Z,9.358471
2023-02-14T03:47:55.373Z,9.358437
2023-02-14T03:48:55.349Z,9.358487
2023-02-14T03:49:55.341Z,9.358502
2023-02-14T03:50:55.340Z,9.358498
2023-02-14T03:51:55.323Z,9.358522
2023-02-14T03:52:55.305Z,9.358512
2023-02-14T03:53:55.290Z,9.358570
2023-02-14T03:54:55.272Z,9.358545
2023-02-14T03:55:55.281Z,9.358519
2023-02-14T03:56:55.276Z,9.358491
2023-02-14T03:57:55.256Z,9.358549
2023-02-14T03:58:55.254Z,9.358577
2023-02-14T03:59:55.257Z,9.358580
2023-02-14T04:00:55.216Z,9.358541
2023-02-14T04:01:55.258Z,9.358537
2023-02-14T04:02:55.209Z,9.358578
2023-02-14T04:03:55.248Z,9.358651
2023-02-14T04:04:55.157Z,9.358643
2023-02-14T04:05:55.193Z,9.358590
2023-02-14T04:06:55.151Z,9.358559
2023-02-14T04:07:55.142Z,9.358543
2023-02-14T04:08:55.150Z,9.358511
2023-02-14T04:09:55.132Z,9.358515
2023-02-14T04:10:55.096Z,9.358493
2023-02-14T04:11:56.104Z,9.358494
2023-02-14T04:12:55.130Z,9.358524
2023-02-14T04:13:55.091Z,9.358529
2023-02-14T04:14:55.056Z,9.358560
2023-02-14T04:15:55.080Z,9.358615
2023-02-14T04:16:55.054Z,9.358595
2023-02-14T04:17:56.040Z,9.358508
2023-02-14T04:18:55.026Z,9.358511
2023-02-14T04:19:55.028Z,9.358502
2023-02-14T04:20:55.025Z,9.358502
2023-02-14T04:21:54.983Z,9.358536
2023-02-14T04:22:55.022Z,9.358485
2023-02-14T04:23:55.004Z,9.358464
2023-02-14T04:24:55.948Z,9.358515
2023-02-14T04:25:54.984Z,9.358523
2023-02-14T04:26:54.966Z,9.358574
2023-02-14T04:27:54.942Z,9.358541
2023-02-14T04:28:54.926Z,9.358479
2023-02-14T04:29:54.989Z,9.358445
2023-02-14T04:30:54.895Z,9.358469
2023-02-14T04:31:54.974Z,9.358530
2023-02-14T04:32:54.931Z,9.358513
2023-02-14T04:33:54.870Z,9.358667
2023-02-14T04:34:54.844Z,9.358577
2023-02-14T04:35:54.846Z,9.358600
2023-02-14T04:36:54.890Z,9.358608
2023-02-14T04:37:54.813Z,9.358521
2023-02-14T04:38:54.835Z,9.358509
2023-02-14T04:39:54.800Z,9.358491
2023-02-14T04:40:54.782Z,9.358523
2023-02-14T04:41:54.797Z,9.358494
2023-02-14T04:42:54.796Z,9.358501
2023-02-14T04:43:54.769Z,9.358542
2023-02-14T04:44:54.737Z,9.358605
2023-02-14T04:45:54.744Z,9.358563
2023-02-14T04:46:54.831Z,9.358541
2023-02-14T04:47:54.733Z,9.358565
2023-02-14T04:48:54.726Z,9.358546
2023-02-14T04:49:54.728Z,9.358524
2023-02-14T04:50:54.705Z,9.358500
2023-02-14T04:51:54.717Z,9.358566
2023-02-14T04:52:54.690Z,9.358568
2023-02-14T04:53:54.651Z,9.358564
2023-02-14T04:54:54.660Z,9.358543
2023-02-14T04:55:54.650Z,9.358591
2023-02-14T04:56:54.623Z,9.358587
2023-02-14T04:57:54.613Z,9.358597
2023-02-14T04:58:54.631Z,9.358593
2023-02-14T04:59:54.622Z,9.358572
2023-02-14T05:00:54.601Z,9.358543
2023-02-14T05:01:54.706Z,9.358593
2023-02-14T05:02:54.557Z,9.358601
2023-02-14T05:03:54.546Z,9.358664
2023-02-14T05:04:54.563Z,9.358615
2023-02-14T05:05:54.563Z,9.358593
2023-02-14T05:06:54.519Z,9.358606
2023-02-14T05:07:54.513Z,9.358580
2023-02-14T05:08:54.530Z,9.358538
2023-02-14T05:09:54.488Z,9.358546
2023-02-14T05:10:54.505Z,9.358621
2023-02-14T05:11:54.500Z,9.358590
2023-02-14T05:12:54.453Z,9.358605
2023-02-14T05:13:54.476Z,9.358608
2023-02-14T05:14:54.467Z,9.358652
2023-02-14T05:15:54.499Z,9.358683
2023-02-14T05:16:54.422Z,9.358634
2023-02-14T05:17:54.409Z,9.358554
2023-02-14T05:18:54.414Z,9.358541
2023-02-14T05:19:54.401Z,9.358603
2023-02-14T05:20:54.367Z,9.358624
2023-02-14T05:21:54.367Z,9.358582
2023-02-14T05:22:54.378Z,9.358537
2023-02-14T05:23:54.378Z,9.358557
2023-02-14T05:24:54.325Z,9.358558
2023-02-14T05:25:54.340Z,9.358517
2023-02-14T05:26:54.324Z,9.358542
2023-02-14T05:27:54.308Z,9.358590
2023-02-14T05:28:54.306Z,9.358596
2023-02-14T05:29:54.367Z,9.358581
2023-02-14T05:30:54.294Z,9.358565
2023-02-14T05:31:54.359Z,9.358584
2023-02-14T05:32:54.295Z,9.358564
2023-02-14T05:33:54.242Z,9.358559
2023-02-14T05:34:54.452Z,9.358611
2023-02-14T05:35:54.230Z,9.358593
2023-02-14T05:36:54.221Z,9.358568
2023-02-14T05:37:54.197Z,9.358587
2023-02-14T05:38:54.214Z,9.358581
2023-02-14T05:39:54.197Z,9.358526
2023-02-14T05:40:54.196Z,9.358578
2023-02-14T05:41:54.194Z,9.358636
2023-02-14T05:42:54.152Z,9.358617
2023-02-14T05:43:54.127Z,9.358550
2023-02-14T05:44:54.158Z,9.358583
2023-02-14T05:45:54.190Z,9.358580
2023-02-14T05:46:54.086Z,9.358559
2023-02-14T05:47:54.108Z,9.358550
2023-02-14T05:48:54.129Z,9.358577
2023-02-14T05:49:54.080Z,9.358577
2023-02-14T05:50:54.057Z,9.358562
2023-02-14T05:51:54.075Z,9.358588
2023-02-14T05:52:54.056Z,9.358601
2023-02-14T05:53:54.048Z,9.358626
2023-02-14T05:54:54.015Z,9.358561
2023-02-14T05:55:54.011Z,9.358559
2023-02-14T05:56:54.023Z,9.358561
2023-02-14T05:57:53.978Z,9.358534
2023-02-14T05:58:54.001Z,9.358544
2023-02-14T05:59:54.154Z,9.358542
2023-02-14T06:00:53.983Z,9.358546
2023-02-14T06:01:53.995Z,9.358535
2023-02-14T06:02:53.965Z,9.358601
2023-02-14T06:03:53.932Z,9.358548
2023-02-14T06:04:53.907Z,9.358520
2023-02-14T06:05:53.964Z,9.358539
2023-02-14T06:06:53.889Z,9.358596
2023-02-14T06:07:53.888Z,9.358596
2023-02-14T06:08:53.931Z,9.358612
2023-02-14T06:09:53.887Z,9.358609
2023-02-14T06:10:53.842Z,9.358588
2023-02-14T06:11:55.349Z,9.358536
2023-02-14T06:12:54.848Z,9.358502
2023-02-14T06:13:53.822Z,9.358553
2023-02-14T06:14:53.833Z,9.358582
2023-02-14T06:15:54.813Z,9.358561
2023-02-14T06:16:53.854Z,9.358559
2023-02-14T06:17:53.798Z,9.358584
2023-02-14T06:18:53.805Z,9.358512
2023-02-14T06:19:53.765Z,9.358609
2023-02-14T06:20:53.749Z,9.358650
2023-02-14T06:21:53.742Z,9.358578
2023-02-14T06:22:53.770Z,9.358570
2023-02-14T06:23:53.745Z,9.358564
2023-02-14T06:24:53.700Z,9.358521
2023-02-14T06:25:53.724Z,9.358467
2023-02-14T06:26:53.720Z,9.358540
2023-02-14T06:27:53.687Z,9.358604
2023-02-14T06:28:53.684Z,9.358608
2023-02-14T06:29:53.734Z,9.358564
2023-02-14T06:30:53.775Z,9.358587
2023-02-14T06:31:53.755Z,9.358564
2023-02-14T06:32:53.672Z,9.358574
2023-02-14T06:33:53.624Z,9.358533
2023-02-14T06:34:53.661Z,9.358531
2023-02-14T06:35:53.616Z,9.358635
2023-02-14T06:36:53.618Z,9.358576
2023-02-14T06:37:53.605Z,9.358550
2023-02-14T06:38:53.607Z,9.358526
2023-02-14T06:39:53.572Z,9.358518
2023-02-14T06:40:53.536Z,9.358522
2023-02-14T06:41:53.568Z,9.358516
2023-02-14T06:42:53.541Z,9.358527
2023-02-14T06:43:53.530Z,9.358524
2023-02-14T06:44:53.528Z,9.358537
2023-02-14T06:45:53.533Z,9.358529
2023-02-14T06:46:53.481Z,9.358530
2023-02-14T06:47:53.502Z,9.358589
2023-02-14T06:48:53.486Z,9.358572
2023-02-14T06:49:53.470Z,9.358562
2023-02-14T06:50:53.437Z,9.358564
2023-02-14T06:51:53.442Z,9.358514
2023-02-14T06:52:53.436Z,9.358488
2023-02-14T06:53:53.437Z,9.358480
2023-02-14T06:54:53.397Z,9.358596
2023-02-14T06:55:53.392Z,9.358614
2023-02-14T06:56:53.401Z,9.358576
2023-02-14T06:57:53.391Z,9.358567
2023-02-14T06:58:53.346Z,9.358587
2023-02-14T06:59:53.342Z,9.358595
2023-02-14T07:00:53.372Z,9.358562
2023-02-14T07:01:53.343Z,9.358505
2023-02-14T07:02:53.353Z,9.358472
2023-02-14T07:03:53.302Z,9.358464
2023-02-14T07:04:53.292Z,9.358502
2023-02-14T07:05:53.280Z,9.358555
2023-02-14T07:06:53.302Z,9.358532
2023-02-14T07:07:53.269Z,9.358536
2023-02-14T07:08:53.234Z,9.358578
2023-02-14T07:09:53.254Z,9.358562
2023-02-14T07:10:53.229Z,9.358607
2023-02-14T07:11:53.217Z,9.358615
2023-02-14T07:12:53.239Z,9.358549
2023-02-14T07:13:53.201Z,9.358519
2023-02-14T07:14:54.174Z,9.358527
2023-02-14T07:15:53.226Z,9.358523
2023-02-14T07:16:53.214Z,9.358577
2023-02-14T07:17:53.161Z,9.358586
2023-02-14T07:18:53.185Z,9.358594
2023-02-14T07:19:53.138Z,9.358622
2023-02-14T07:20:53.126Z,9.358533
2023-02-14T07:21:53.108Z,9.358528
2023-02-14T07:22:53.128Z,9.358597
2023-02-14T07:23:53.101Z,9.358625
2023-02-14T07:24:53.068Z,9.358639
2023-02-14T07:25:53.075Z,9.358615
2023-02-14T07:26:53.081Z,9.358622
2023-02-14T07:27:53.067Z,9.358562
2023-02-14T07:28:53.030Z,9.358555
2023-02-14T07:29:53.065Z,9.358597
2023-02-14T07:30:53.147Z,9.358610
2023-02-14T07:31:53.111Z,9.358596
2023-02-14T07:32:52.999Z,9.358582
2023-02-14T07:33:53.012Z,9.358520
2023-02-14T07:34:52.960Z,9.358512
2023-02-14T07:35:52.979Z,9.358488
2023-02-14T07:36:53.004Z,9.358512
2023-02-14T07:37:52.946Z,9.358546
2023-02-14T07:38:52.915Z,9.358515
2023-02-14T07:39:52.926Z,9.358407
2023-02-14T07:40:52.930Z,9.358398
2023-02-14T07:41:52.913Z,9.358480
2023-02-14T07:42:52.934Z,9.358496
2023-02-14T07:43:52.892Z,9.358486
2023-02-14T07:44:52.862Z,9.358528
2023-02-14T07:45:52.881Z,9.358572
2023-02-14T07:46:52.881Z,9.358536
2023-02-14T07:47:52.860Z,9.358483
2023-02-14T07:48:52.819Z,9.358526
2023-02-14T07:49:52.853Z,9.358563
2023-02-14T07:50:52.796Z,9.358686
2023-02-14T07:51:53.811Z,9.358626
2023-02-14T07:52:52.833Z,9.358567
2023-02-14T07:53:52.781Z,9.358519
2023-02-14T07:54:52.758Z,9.358508
2023-02-14T07:55:52.752Z,9.358503
2023-02-14T07:56:52.767Z,9.358438
2023-02-14T07:57:52.757Z,9.358504
2023-02-14T07:58:52.705Z,9.358493
2023-02-14T07:59:52.705Z,9.358500
2023-02-14T08:00:52.731Z,9.358404
2023-02-14T08:01:52.815Z,9.358397
2023-02-14T08:02:52.685Z,9.358489
2023-02-14T08:03:52.707Z,9.358527
2023-02-14T08:04:52.726Z,9.358607
2023-02-14T08:05:52.665Z,9.358570
2023-02-14T08:06:52.657Z,9.358519
2023-02-14T08:07:52.632Z,9.358499
2023-02-14T08:08:52.622Z,9.358457
2023-02-14T08:09:52.598Z,9.358543
2023-02-14T08:10:52.615Z,9.358598
2023-02-14T08:11:52.613Z,9.358672
2023-02-14T08:12:52.549Z,9.358680
2023-02-14T08:13:52.595Z,9.358588
2023-02-14T08:14:52.560Z,9.358602
2023-02-14T08:15:52.611Z,9.358619
2023-02-14T08:16:52.554Z,9.358518
2023-02-14T08:17:52.536Z,9.358482
2023-02-14T08:18:52.513Z,9.358465
2023-02-14T08:19:52.497Z,9.358590
2023-02-14T08:20:52.513Z,9.358545
2023-02-14T08:21:52.462Z,9.358542
2023-02-14T08:22:52.501Z,9.358738
2023-02-14T08:23:52.480Z,9.358634
2023-02-14T08:24:52.445Z,9.358551
2023-02-14T08:25:52.448Z,9.358515
2023-02-14T08:26:52.508Z,9.358494
2023-02-14T08:27:52.425Z,9.358472
2023-02-14T08:28:52.389Z,9.358496
2023-02-14T08:29:52.421Z,9.358500
2023-02-14T08:30:52.419Z,9.358468
2023-02-14T08:31:52.452Z,9.358543
2023-02-14T08:32:52.415Z,9.358502
2023-02-14T08:33:52.346Z,9.358434
2023-02-14T08:34:52.357Z,9.358407
2023-02-14T08:35:52.347Z,9.358413
2023-02-14T08:36:52.309Z,9.358438
2023-02-14T08:37:52.325Z,9.358446
2023-02-14T08:38:52.289Z,9.358555
2023-02-14T08:39:52.286Z,9.358475
2023-02-14T08:40:52.315Z,9.358455
2023-02-14T08:41:52.278Z,9.358437
2023-02-14T08:42:52.252Z,9.358426
2023-02-14T08:43:52.236Z,9.358545
2023-02-14T08:44:52.281Z,9.358472
2023-02-14T08:45:52.232Z,9.358451
2023-02-14T08:46:52.264Z,9.358525
2023-02-14T08:47:52.219Z,9.358499
2023-02-14T08:48:52.201Z,9.358500
2023-02-14T08:49:52.220Z,9.358463
2023-02-14T08:50:52.214Z,9.358511
2023-02-14T08:51:52.183Z,9.358482
2023-02-14T08:52:52.160Z,9.358417
2023-02-14T08:53:52.173Z,9.358440
2023-02-14T08:54:52.135Z,9.358522
2023-02-14T08:55:52.118Z,9.358460
2023-02-14T08:56:52.150Z,9.358487
2023-02-14T08:57:52.104Z,9.358593
2023-02-14T08:58:52.135Z,9.358620
2023-02-14T08:59:52.114Z,9.358616
2023-02-14T09:00:52.124Z,9.358663
2023-02-14T09:01:52.041Z,9.358674
2023-02-14T09:02:52.082Z,9.358568
2023-02-14T09:03:52.077Z,9.358530
2023-02-14T09:04:52.026Z,9.358439
2023-02-14T09:05:52.027Z,9.358424
2023-02-14T09:06:52.018Z,9.358418
2023-02-14T09:07:53.008Z,9.358473
2023-02-14T09:08:52.004Z,9.358509
2023-02-14T09:09:52.006Z,9.358573
2023-02-14T09:10:51.990Z,9.358562
2023-02-14T09:11:51.984Z,9.358568
2023-02-14T09:12:52.550Z,9.358551
2023-02-14T09:13:51.944Z,9.358497
2023-02-14T09:14:51.951Z,9.358459
2023-02-14T09:15:51.949Z,9.358571
2023-02-14T09:16:51.974Z,9.358557
2023-02-14T09:17:51.900Z,9.358602
2023-02-14T09:18:51.904Z,9.358628
2023-02-14T09:19:51.903Z,9.358602
2023-02-14T09:20:51.852Z,9.358525
2023-02-14T09:21:51.857Z,9.358501
2023-02-14T09:22:51.871Z,9.358500
2023-02-14T09:23:51.834Z,9.358583
2023-02-14T09:24:51.812Z,9.358541
2023-02-14T09:25:51.849Z,9.358527
2023-02-14T09:26:51.789Z,9.358625
2023-02-14T09:27:51.789Z,9.358624
2023-02-14T09:28:51.801Z,9.358526
2023-02-14T09:29:51.787Z,9.358504
2023-02-14T09:30:54.097Z,9.358523
2023-02-14T09:31:52.868Z,9.358551
2023-02-14T09:32:51.769Z,9.358455
2023-02-14T09:33:51.729Z,9.358504
2023-02-14T09:34:51.702Z,9.358482
2023-02-14T09:35:51.725Z,9.358486
2023-02-14T09:36:51.713Z,9.358488
2023-02-14T09:37:51.694Z,9.358480
2023-02-14T09:38:51.670Z,9.358470
2023-02-14T09:39:51.662Z,9.358373
2023-02-14T09:40:51.691Z,9.358459
2023-02-14T09:41:51.631Z,9.358451
2023-02-14T09:42:51.658Z,9.358459
2023-02-14T09:43:51.641Z,9.358419
2023-02-14T09:44:51.668Z,9.358392
2023-02-14T09:45:51.653Z,9.358438
2023-02-14T09:46:51.632Z,9.358433
2023-02-14T09:47:51.591Z,9.358448
2023-02-14T09:48:51.594Z,9.358415
2023-02-14T09:49:51.631Z,9.358470
2023-02-14T09:50:51.536Z,9.358445
2023-02-14T09:51:51.538Z,9.358407
2023-02-14T09:52:51.555Z,9.358539
2023-02-14T09:53:51.553Z,9.358521
2023-02-14T09:54:51.491Z,9.358492
2023-02-14T09:55:51.515Z,9.358463
2023-02-14T09:56:52.236Z,9.358497
2023-02-14T09:57:51.462Z,9.358537
2023-02-14T09:58:51.487Z,9.358550
2023-02-14T09:59:51.464Z,9.358620
2023-02-14T10:00:51.635Z,9.358564
2023-02-14T10:01:51.566Z,9.358435
2023-02-14T10:02:51.449Z,9.358440
2023-02-14T10:03:51.412Z,9.358529
2023-02-14T10:04:51.388Z,9.358539
2023-02-14T10:05:51.416Z,9.358501
2023-02-14T10:06:51.400Z,9.358506
2023-02-14T10:07:51.397Z,9.358531
2023-02-14T10:08:51.352Z,9.358562
2023-02-14T10:09:51.369Z,9.358502
2023-02-14T10:10:51.363Z,9.358549
2023-02-14T10:11:51.407Z,9.358564
2023-02-14T10:12:51.311Z,9.358553
2023-02-14T10:13:51.336Z,9.358480
2023-02-14T10:14:51.310Z,9.358489
2023-02-14T10:15:51.300Z,9.358546
2023-02-14T10:16:51.352Z,9.358477
2023-02-14T10:17:51.268Z,9.358506
2023-02-14T10:18:52.270Z,9.358519
2023-02-14T10:19:51.244Z,9.358516
2023-02-14T10:20:52.266Z,9.358579
2023-02-14T10:21:51.217Z,9.358565
2023-02-14T10:22:51.253Z,9.358492
2023-02-14T10:23:51.222Z,9.358442
2023-02-14T10:24:51.209Z,9.358459
2023-02-14T10:25:51.197Z,9.358521
2023-02-14T10:26:51.217Z,9.358492
2023-02-14T10:27:51.209Z,9.358563
2023-02-14T10:28:51.187Z,9.358502
2023-02-14T10:29:51.237Z,9.358515
2023-02-14T10:30:51.160Z,9.358487
2023-02-14T10:31:51.169Z,9.358494
2023-02-14T10:32:51.153Z,9.358541
2023-02-14T10:33:51.108Z,9.358507
2023-02-14T10:34:51.165Z,9.358479
2023-02-14T10:35:51.078Z,9.358723
2023-02-14T10:36:51.098Z,9.358594
2023-02-14T10:37:51.080Z,9.358534
2023-02-14T10:38:51.062Z,9.358545
2023-02-14T10:39:51.044Z,9.358510
2023-02-14T10:40:51.050Z,9.358610
2023-02-14T10:41:51.046Z,9.358582
2023-02-14T10:42:50.991Z,9.358452
2023-02-14T10:43:51.021Z,9.358438
2023-02-14T10:44:51.025Z,9.358432
2023-02-14T10:45:51.069Z,9.358493
2023-02-14T10:46:51.013Z,9.358502
2023-02-14T10:47:50.988Z,9.358499
2023-02-14T10:48:50.940Z,9.358527
2023-02-14T10:49:50.948Z,9.358526
2023-02-14T10:50:50.937Z,9.358650
2023-02-14T10:51:50.935Z,9.358631
2023-02-14T10:52:50.907Z,9.358680
2023-02-14T10:53:50.914Z,9.358608
2023-02-14T10:54:50.883Z,9.358525
2023-02-14T10:55:50.879Z,9.358453
2023-02-14T10:56:50.882Z,9.358522
2023-02-14T10:57:50.871Z,9.358489
2023-02-14T10:58:50.834Z,9.358439
2023-02-14T10:59:50.830Z,9.358488
2023-02-14T11:00:50.843Z,9.358514
2023-02-14T11:01:50.828Z,9.358545
2023-02-14T11:02:50.816Z,9.358541
2023-02-14T11:03:50.885Z,9.358535
2023-02-14T11:04:50.764Z,9.358509
2023-02-14T11:05:50.763Z,9.358600
2023-02-14T11:06:50.787Z,9.358554
2023-02-14T11:07:50.751Z,9.358572
2023-02-14T11:08:50.728Z,9.358620
2023-02-14T11:09:50.784Z,9.358479
2023-02-14T11:10:50.715Z,9.358349
2023-02-14T11:11:50.706Z,9.358397
2023-02-14T11:12:50.720Z,9.358481
2023-02-14T11:13:50.724Z,9.358486
2023-02-14T11:14:50.663Z,9.358606
2023-02-14T11:15:50.675Z,9.358568
2023-02-14T11:16:50.703Z,9.358541
2023-02-14T11:17:50.633Z,9.358467
2023-02-14T11:18:50.672Z,9.358521
2023-02-14T11:19:50.624Z,9.358464
2023-02-14T11:20:50.600Z,9.358501
2023-02-14T11:21:50.627Z,9.358492
2023-02-14T11:22:50.617Z,9.358478
2023-02-14T11:23:50.586Z,9.358484
2023-02-14T11:24:50.553Z,9.358487
2023-02-14T11:25:50.598Z,9.358446
2023-02-14T11:26:50.548Z,9.358454
2023-02-14T11:27:50.532Z,9.358511
2023-02-14T11:28:50.537Z,9.358486
2023-02-14T11:29:50.543Z,9.358566
2023-02-14T11:30:50.568Z,9.358540
2023-02-14T11:31:50.579Z,9.358547
2023-02-14T11:32:50.504Z,9.358572
2023-02-14T11:33:50.457Z,9.358609
2023-02-14T11:34:50.482Z,9.358601
2023-02-14T11:35:50.453Z,9.358595
2023-02-14T11:36:50.441Z,9.358581
2023-02-14T11:37:50.451Z,9.358687
2023-02-14T11:38:50.438Z,9.358573
2023-02-14T11:39:50.419Z,9.358605
2023-02-14T11:40:50.385Z,9.358584
2023-02-14T11:41:50.392Z,9.358538
2023-02-14T11:42:54.624Z,9.358656
2023-02-14T11:43:51.376Z,9.358581
2023-02-14T11:44:50.337Z,9.358541